Aérodrome :
LOGIN :

S'inscrire | Disclaimer

   EN    FR    IT 

 










Légende :    VFR   VFR Marginal   IFR   IFR Intensif   IFR Très Intensif
Visi : 
Plafond : 
>= 8 km
>= 3000ft
5 à 8 km
1000 à 3000 ft
1500m à 5 km
500 à 1000 ft
800 à 1500m
200 à 500 ft
< 800m
< 200 ft
Symboles :   Orages  Brouillard  Fortes neiges  Fortes précipitations  Vent > 20 kt
SIGMETs :   Divers  Orages  Givrage  Turbulence  Onde Orograph.  Cendres Volcan.







- Altitude de l'aérodrome : 297 ft
- Code IATA : UIP
- Voir les cartes d'approche


LFRQ - Quimper Pluguffan

DERNIER METAR :
  • 220830Z AUTO 17004KT 120V220 CAVOK 16/10 Q1020 NOSIG

METARs EXPIRÉS :
  • 220800Z AUTO 15003KT 120V190 CAVOK 16/10 Q1021 NOSIG
  • 220730Z AUTO VRB02KT CAVOK 15/09 Q1020 NOSIG
  • 220700Z AUTO VRB02KT CAVOK 14/09 Q1020 NOSIG
  • 220630Z AUTO 06002KT CAVOK 13/09 Q1020 NOSIG
  • 220600Z AUTO 04002KT CAVOK 10/08 Q1020 NOSIG

TAF TAF LFRQ
Valide du 22 à 06h jusqu'au 23 à 06h UTC


220500Z 2206/2306 05004KT CAVOK
BECMG 2212/2215 19010KT
BECMG 2218/2220 VRB02KT
BECMG 2223/2301 4000 BR
PROB40
TEMPO 2301/2305 0400 FG VV///
Pas de NOTAMs connus pour ce terrain.



MET'MAP, la Météo Aéronautique d'un coup d'oeil ! - Copyright ORBIFLY Décembre 2007 - Disclaimer

ORBIFLY MET'MAP TEAM :

Programmation & Développement : Alexandra Zaïnal
Conception & Développement : Baudouin d'Aumeries
Co-Programmation & Développement : Marc-Olivier Méhu
Soutien technique & logistique : Manuel Goepfert

Contact : metmap@orbifly.com




SOURCES & CREDITS :

   NOAA